Decoded Metar for UUEE (MOSCOW/SHEREMETYEVO in RUSSIA) (IATA:SVO) | Meteo·Mobile Aviation Weather
aviador You're here:

UUEE Decoded Metar

MOSCOW/SHEREMETYEVO in RUSSIA
Report Time2018-10-17 21:00:00
UTC Time2018-10-17 21:33:48
Flight Rules ifr IFR
WindVRB at 2 kt
Visibility4100 m
Phenomena:Mist
Clouds:N/A
Expected CloudBase > 400 ft AGL from Temp-Dew spread
CeilingNone
Temp07°C (ISA -7)
Dew Point06°C (93% RH)
AAT5.4°C
QNH1025 hPa
Density Alt-466 ft
Elevation623 ft
Report Wrong Elevation
Raw Report
METAR UUEE 172100Z VRB01MPS 4100 BR NSC 07/06 Q1025 R24L/CLRD62
R24C/CLRD62 NOSIG=

Extra information for UUEE:More info

Metar Taf Metar & Taf Last 4 Metars F.Rules Stats Wind Profile Meteogram Temp Stats Airport Information Weather charts Add Link Nearby VenuesMetar ALERT Operation Metar Decoded Social comments